Saltar para o conteúdo principal

Ansião

ID 1210716 · 39.9000, -8.4000 mapa

Última leitura · 2026-05-09 18:00 (Europe/Lisbon)

Temperatura
10.6 °C
Humidade
95 %
Pressão
Precipitação
0.2 mm
Radiação
154 W/m²
Velocidade do vento
16.2 km/h
Direcção do vento
S · Sul

Histórico de 24 horas

Hora (Europe/Lisbon) Temperatura Humidade Pressão Chuva Vento Direcção
2026-05-09 18:00 10.6 °C 95 % 0.2 mm 16.2 km/h S
2026-05-09 17:00 13.0 °C 92 % 1.9 mm 16.6 km/h S
2026-05-09 16:00 15.7 °C 75 % 0.2 mm 13.7 km/h SW
2026-05-09 15:00 18.2 °C 65 % 0.0 mm 21.2 km/h SW
2026-05-09 14:00 17.8 °C 71 % 0.0 mm 23.8 km/h SW
2026-05-09 13:00 16.6 °C 77 % 0.0 mm 14.0 km/h S
2026-05-09 12:00 14.6 °C 82 % 0.0 mm 11.2 km/h S
2026-05-09 11:00 13.4 °C 94 % 0.0 mm 13.0 km/h SE
2026-05-09 10:00 11.6 °C 99 % 0.3 mm 8.3 km/h SE
2026-05-09 09:00 11.0 °C 99 % 2.3 mm 10.8 km/h SE
2026-05-09 08:00 11.3 °C 98 % 0.4 mm 11.2 km/h SE
2026-05-09 07:00 11.0 °C 99 % 2.1 mm 7.6 km/h SE
2026-05-09 06:00 11.2 °C 96 % 1.9 mm 11.9 km/h SE
2026-05-09 05:00 11.0 °C 95 % 0.0 mm 7.6 km/h SE
2026-05-09 04:00 11.0 °C 94 % 0.0 mm 10.1 km/h SE
2026-05-09 03:00 11.0 °C 95 % 0.0 mm 13.7 km/h S
2026-05-09 02:00 11.1 °C 96 % 0.0 mm 14.0 km/h SE
2026-05-09 01:00 11.3 °C 98 % 0.0 mm 15.8 km/h SE
2026-05-09 00:00 11.3 °C 99 % 0.7 mm 13.7 km/h SE
2026-05-08 23:00 11.6 °C 99 % 2.6 mm 13.7 km/h S
2026-05-08 22:00 12.3 °C 93 % 1.0 mm 13.3 km/h SW
2026-05-08 21:00 14.8 °C 63 % 0.1 mm 8.3 km/h S
2026-05-08 20:00 15.6 °C 61 % 0.0 mm 6.1 km/h S
2026-05-08 19:00 17.6 °C 53 % 0.0 mm 6.5 km/h S